| time (UTC) | temp C | wind direction | speed KPH | gust KPH | rain 1hr cm | rain 24hr cm | rain mn cm | humidity % | barometer mb |
| 20260504220039 | 26 | 319 | 0.0 | 8.0 | 0.00 | 0.00 | 0.00 | 58 | 1011.1 |
| 20260504214539 | 27 | 288 | 0.0 | 12.9 | 0.00 | 0.00 | 0.00 | 58 | 1011.3 |
| 20260504213042 | 27 | 219 | 0.0 | 6.4 | 0.00 | 0.00 | 0.00 | 55 | 1011.4 |
| 20260504211537 | 27 | 319 | 3.2 | 8.0 | 0.00 | 0.00 | 0.00 | 54 | 1011.5 |
| 20260504210035 | 28 | 298 | 1.6 | 8.0 | 0.00 | 0.00 | 0.00 | 55 | 1011.6 |
| 20260504204535 | 28 | 215 | 0.0 | 6.4 | 0.00 | 0.00 | 0.00 | 54 | 1012.0 |
| 20260504203033 | 28 | 227 | 1.6 | 11.3 | 0.00 | 0.00 | 0.00 | 52 | 1012.0 |
| 20260504201529 | 28 | 205 | 0.0 | 6.4 | 0.00 | 0.00 | 0.00 | 52 | 1012.4 |
| 20260504200027 | 29 | 27 | 0.0 | 6.4 | 0.00 | 0.00 | 0.00 | 50 | 1012.7 |
| 20260504194526 | 28 | 184 | 3.2 | 8.0 | 0.00 | 0.00 | 0.00 | 51 | 1012.8 |
| 20260504193023 | 28 | 263 | 1.6 | 8.0 | 0.00 | 0.00 | 0.00 | 51 | 1013.1 |
| 20260504191524 | 28 | 186 | 3.2 | 11.3 | 0.00 | 0.00 | 0.00 | 52 | 1013.2 |
| 20260504190021 | 28 | 30 | 1.6 | 14.5 | 0.00 | 0.00 | 0.00 | 49 | 1013.5 |
| 20260504184532 | 30 | 190 | 0.0 | 6.4 | 0.00 | 0.00 | 0.00 | 50 | 1013.6 |
| 20260504183014 | 28 | 232 | 1.6 | 8.0 | 0.00 | 0.00 | 0.00 | 50 | 1013.6 |
| 20260504181511 | 28 | 271 | 1.6 | 8.0 | 0.00 | 0.00 | 0.00 | 52 | 1013.8 |
| 20260504180009 | 28 | 247 | 1.6 | 12.9 | 0.00 | 0.00 | 0.00 | 52 | 1014.0 |
| 20260504174507 | 27 | 229 | 1.6 | 12.9 | 0.00 | 0.00 | 0.00 | 55 | 1014.3 |
| 20260504173012 | 27 | 182 | 1.6 | 4.8 | 0.00 | 0.00 | 0.00 | 52 | 1014.4 |
| 20260504171502 | 26 | 207 | 1.6 | 9.7 | 0.00 | 0.00 | 0.00 | 55 | 1014.8 |
| 20260504081555 | 15 | 250 | 0.0 | 0.0 | 0.00 | 0.00 | 0.00 | 75 | 1016.3 |
| 20260504044534 | 17 | 244 | 0.0 | 1.6 | 0.00 | 0.00 | 0.00 | 63 | 1018.4 |
| 20260504043028 | 18 | 244 | 0.0 | 1.6 | 0.00 | 0.00 | 0.00 | 62 | 1018.4 |
| 20260504041528 | 18 | 244 | 0.0 | 1.6 | 0.00 | 0.00 | 0.00 | 61 | 1018.5 |
| 20260504040027 | 18 | 244 | 0.0 | 1.6 | 0.00 | 0.00 | 0.00 | 61 | 1018.5 |
| 20260504034529 | 18 | 244 | 0.0 | 1.6 | 0.00 | 0.00 | 0.00 | 60 | 1018.4 |
| 20260504033025 | 19 | 245 | 0.0 | 1.6 | 0.00 | 0.00 | 0.00 | 59 | 1018.6 |
| 20260504031526 | 19 | 208 | 0.0 | 1.6 | 0.00 | 0.00 | 0.00 | 57 | 1018.4 |
| 20260504030026 | 20 | 208 | 0.0 | 1.6 | 0.00 | 0.00 | 0.00 | 56 | 1018.3 |
| 20260504024532 | 20 | 205 | 0.0 | 1.6 | 0.00 | 0.00 | 0.00 | 55 | 1018.2 |
| 20260504023023 | 20 | 32 | 0.0 | 1.6 | 0.00 | 0.00 | 0.00 | 52 | 1017.8 |
| 20260504021525 | 21 | 40 | 0.0 | 1.6 | 0.00 | 0.00 | 0.00 | 51 | 1017.9 |
| 20260504020022 | 21 | 213 | 0.0 | 4.8 | 0.00 | 0.00 | 0.00 | 50 | 1017.8 |
| 20260504014522 | 21 | 107 | 0.0 | 3.2 | 0.00 | 0.00 | 0.00 | 50 | 1017.7 |
| 20260504013032 | 21 | 307 | 0.0 | 1.6 | 0.00 | 0.00 | 0.00 | 49 | 1017.6 |
| 20260504011520 | 22 | 262 | 0.0 | 3.2 | 0.00 | 0.00 | 0.00 | 49 | 1017.4 |
| 20260504010019 | 22 | 271 | 0.0 | 3.2 | 0.00 | 0.00 | 0.00 | 47 | 1017.4 |
| 20260504004519 | 23 | 233 | 0.0 | 3.2 | 0.00 | 0.00 | 0.00 | 46 | 1017.4 |
| 20260504003034 | 23 | 280 | 0.0 | 1.6 | 0.00 | 0.00 | 0.00 | 44 | 1017.5 |
| 20260504001518 | 24 | 229 | 0.0 | 3.2 | 0.00 | 0.00 | 0.00 | 43 | 1017.4 |
| 20260504000017 | 25 | 360 | 0.0 | 3.2 | 0.00 | 0.00 | 0.00 | 40 | 1017.4 |
| 20260503234516 | 25 | 222 | 0.0 | 4.8 | 0.00 | 0.00 | 0.00 | 40 | 1017.6 |
| 20260503233015 | 25 | 223 | 0.0 | 6.4 | 0.00 | 0.00 | 0.00 | 39 | 1017.6 |
| 20260503231515 | 25 | 66 | 0.0 | 4.8 | 0.00 | 0.00 | 0.00 | 35 | 1017.8 |
| 20260503230013 | 25 | 212 | 1.6 | 6.4 | 0.00 | 0.00 | 0.00 | 35 | 1017.7 |
| 20260503224523 | 25 | 26 | 0.0 | 3.2 | 0.00 | 0.00 | 0.00 | 35 | 1018.0 |
| 20260503223011 | 25 | 254 | 0.0 | 8.0 | 0.00 | 0.00 | 0.00 | 35 | 1018.1 |
| 20260503221509 | 26 | 187 | 0.0 | 6.4 | 0.00 | 0.00 | 0.00 | 34 | 1018.4 |